sensor_id;sensor_type;location;lat;lon;timestamp;P1;durP1;ratioP1;P2;durP2;ratioP2
52368;SDS011;38298;50.346;3.526;2022-12-29T00:01:56;3.58;;;0.57;;
52368;SDS011;38298;50.346;3.526;2022-12-29T00:04:22;2.80;;;0.68;;
52368;SDS011;38298;50.346;3.526;2022-12-29T00:06:48;3.20;;;0.55;;
52368;SDS011;38298;50.346;3.526;2022-12-29T00:09:15;7.65;;;0.65;;
52368;SDS011;38298;50.346;3.526;2022-12-29T00:11:41;3.05;;;0.52;;
52368;SDS011;38298;50.346;3.526;2022-12-29T00:14:11;5.43;;;0.65;;
52368;SDS011;38298;50.346;3.526;2022-12-29T00:16:56;2.10;;;0.75;;
52368;SDS011;38298;50.346;3.526;2022-12-29T00:19:22;1.90;;;0.70;;
52368;SDS011;38298;50.346;3.526;2022-12-29T00:22:11;3.00;;;0.60;;
52368;SDS011;38298;50.346;3.526;2022-12-29T00:24:55;2.20;;;0.52;;
52368;SDS011;38298;50.346;3.526;2022-12-29T00:27:40;7.25;;;0.73;;
52368;SDS011;38298;50.346;3.526;2022-12-29T00:30:25;2.75;;;0.80;;
52368;SDS011;38298;50.346;3.526;2022-12-29T00:33:13;4.72;;;0.60;;
52368;SDS011;38298;50.346;3.526;2022-12-29T00:36:21;3.78;;;0.77;;
52368;SDS011;38298;50.346;3.526;2022-12-29T00:38:49;7.80;;;0.63;;
52368;SDS011;38298;50.346;3.526;2022-12-29T00:41:35;1.27;;;0.75;;
52368;SDS011;38298;50.346;3.526;2022-12-29T00:44:20;6.50;;;0.82;;
52368;SDS011;38298;50.346;3.526;2022-12-29T00:46:46;2.22;;;0.88;;
52368;SDS011;38298;50.346;3.526;2022-12-29T00:49:12;0.75;;;0.45;;
52368;SDS011;38298;50.346;3.526;2022-12-29T00:52:01;3.72;;;0.98;;
52368;SDS011;38298;50.346;3.526;2022-12-29T00:56:53;2.65;;;0.73;;
52368;SDS011;38298;50.346;3.526;2022-12-29T00:59:19;1.42;;;0.60;;
52368;SDS011;38298;50.346;3.526;2022-12-29T01:01:46;10.43;;;0.98;;
52368;SDS011;38298;50.346;3.526;2022-12-29T01:04:13;3.88;;;0.68;;
52368;SDS011;38298;50.346;3.526;2022-12-29T01:06:39;2.15;;;0.77;;
52368;SDS011;38298;50.346;3.526;2022-12-29T01:09:06;2.17;;;0.70;;
52368;SDS011;38298;50.346;3.526;2022-12-29T01:11:51;2.03;;;0.50;;
52368;SDS011;38298;50.346;3.526;2022-12-29T01:14:17;3.30;;;0.85;;
52368;SDS011;38298;50.346;3.526;2022-12-29T01:16:43;2.45;;;0.70;;
52368;SDS011;38298;50.346;3.526;2022-12-29T01:19:10;2.70;;;0.60;;
52368;SDS011;38298;50.346;3.526;2022-12-29T01:21:35;6.55;;;1.52;;
52368;SDS011;38298;50.346;3.526;2022-12-29T01:24:02;5.63;;;0.70;;
52368;SDS011;38298;50.346;3.526;2022-12-29T01:26:28;1.10;;;0.60;;
52368;SDS011;38298;50.346;3.526;2022-12-29T01:28:54;3.05;;;0.70;;
52368;SDS011;38298;50.346;3.526;2022-12-29T01:31:20;1.27;;;0.68;;
52368;SDS011;38298;50.346;3.526;2022-12-29T01:33:46;2.55;;;0.80;;
52368;SDS011;38298;50.346;3.526;2022-12-29T01:36:13;2.65;;;0.80;;
52368;SDS011;38298;50.346;3.526;2022-12-29T01:38:40;1.65;;;0.60;;
52368;SDS011;38298;50.346;3.526;2022-12-29T01:41:07;4.03;;;0.57;;
52368;SDS011;38298;50.346;3.526;2022-12-29T01:43:40;0.93;;;0.60;;
52368;SDS011;38298;50.346;3.526;2022-12-29T01:46:20;2.85;;;0.63;;
52368;SDS011;38298;50.346;3.526;2022-12-29T01:48:49;1.63;;;0.70;;
52368;SDS011;38298;50.346;3.526;2022-12-29T01:51:16;4.47;;;0.73;;
52368;SDS011;38298;50.346;3.526;2022-12-29T01:53:42;2.42;;;0.68;;
52368;SDS011;38298;50.346;3.526;2022-12-29T01:56:10;1.45;;;0.43;;
52368;SDS011;38298;50.346;3.526;2022-12-29T01:58:39;0.95;;;0.40;;
52368;SDS011;38298;50.346;3.526;2022-12-29T02:01:07;3.03;;;0.65;;
52368;SDS011;38298;50.346;3.526;2022-12-29T02:03:33;1.23;;;0.60;;
52368;SDS011;38298;50.346;3.526;2022-12-29T02:06:12;1.15;;;0.60;;
52368;SDS011;38298;50.346;3.526;2022-12-29T02:08:40;1.63;;;0.80;;
52368;SDS011;38298;50.346;3.526;2022-12-29T02:11:06;2.30;;;0.90;;
52368;SDS011;38298;50.346;3.526;2022-12-29T02:13:33;4.95;;;0.80;;
52368;SDS011;38298;50.346;3.526;2022-12-29T02:32:01;4.97;;;0.80;;
52368;SDS011;38298;50.346;3.526;2022-12-29T02:40:07;6.10;;;0.77;;
52368;SDS011;38298;50.346;3.526;2022-12-29T02:42:29;2.38;;;0.43;;
52368;SDS011;38298;50.346;3.526;2022-12-29T02:50:48;2.78;;;0.35;;
52368;SDS011;38298;50.346;3.526;2022-12-29T02:53:12;0.85;;;0.30;;
52368;SDS011;38298;50.346;3.526;2022-12-29T02:55:39;2.80;;;0.38;;
52368;SDS011;38298;50.346;3.526;2022-12-29T03:00:36;1.50;;;0.40;;
52368;SDS011;38298;50.346;3.526;2022-12-29T03:03:08;2.55;;;0.60;;
52368;SDS011;38298;50.346;3.526;2022-12-29T03:08:33;3.03;;;0.47;;
52368;SDS011;38298;50.346;3.526;2022-12-29T03:13:37;1.75;;;0.43;;
52368;SDS011;38298;50.346;3.526;2022-12-29T03:16:24;3.78;;;0.60;;
52368;SDS011;38298;50.346;3.526;2022-12-29T03:18:57;2.20;;;0.68;;
52368;SDS011;38298;50.346;3.526;2022-12-29T03:24:11;2.67;;;0.60;;
52368;SDS011;38298;50.346;3.526;2022-12-29T03:26:37;3.22;;;0.60;;
52368;SDS011;38298;50.346;3.526;2022-12-29T03:29:04;5.85;;;0.55;;
52368;SDS011;38298;50.346;3.526;2022-12-29T03:31:32;1.98;;;0.55;;
52368;SDS011;38298;50.346;3.526;2022-12-29T03:33:58;4.18;;;0.75;;
52368;SDS011;38298;50.346;3.526;2022-12-29T03:36:30;3.22;;;0.60;;
52368;SDS011;38298;50.346;3.526;2022-12-29T03:39:01;2.65;;;0.60;;
52368;SDS011;38298;50.346;3.526;2022-12-29T03:41:30;10.25;;;1.35;;
52368;SDS011;38298;50.346;3.526;2022-12-29T03:43:56;2.30;;;0.73;;
52368;SDS011;38298;50.346;3.526;2022-12-29T03:46:22;4.22;;;0.82;;
52368;SDS011;38298;50.346;3.526;2022-12-29T03:48:48;5.55;;;0.68;;
52368;SDS011;38298;50.346;3.526;2022-12-29T03:51:14;7.28;;;0.80;;
52368;SDS011;38298;50.346;3.526;2022-12-29T03:53:40;2.67;;;0.60;;
52368;SDS011;38298;50.346;3.526;2022-12-29T03:56:06;4.43;;;0.70;;
52368;SDS011;38298;50.346;3.526;2022-12-29T03:58:32;5.18;;;0.98;;
52368;SDS011;38298;50.346;3.526;2022-12-29T04:00:58;7.00;;;0.80;;
52368;SDS011;38298;50.346;3.526;2022-12-29T04:03:25;2.05;;;0.52;;
52368;SDS011;38298;50.346;3.526;2022-12-29T04:05:51;4.18;;;0.60;;
52368;SDS011;38298;50.346;3.526;2022-12-29T04:08:17;7.95;;;0.90;;
52368;SDS011;38298;50.346;3.526;2022-12-29T04:10:43;3.67;;;0.63;;
52368;SDS011;38298;50.346;3.526;2022-12-29T04:13:08;5.22;;;0.98;;
52368;SDS011;38298;50.346;3.526;2022-12-29T04:15:34;5.50;;;0.70;;
52368;SDS011;38298;50.346;3.526;2022-12-29T04:18:01;14.73;;;1.25;;
52368;SDS011;38298;50.346;3.526;2022-12-29T04:20:27;10.25;;;0.75;;
52368;SDS011;38298;50.346;3.526;2022-12-29T04:23:11;6.80;;;1.42;;
52368;SDS011;38298;50.346;3.526;2022-12-29T04:25:37;7.82;;;0.95;;
52368;SDS011;38298;50.346;3.526;2022-12-29T04:28:03;9.27;;;1.05;;
52368;SDS011;38298;50.346;3.526;2022-12-29T04:30:30;2.33;;;0.60;;
52368;SDS011;38298;50.346;3.526;2022-12-29T04:32:56;4.10;;;1.45;;
52368;SDS011;38298;50.346;3.526;2022-12-29T04:35:22;7.15;;;0.75;;
52368;SDS011;38298;50.346;3.526;2022-12-29T04:37:48;5.07;;;0.70;;
52368;SDS011;38298;50.346;3.526;2022-12-29T04:40:14;8.55;;;0.57;;
52368;SDS011;38298;50.346;3.526;2022-12-29T04:42:40;4.28;;;0.82;;
52368;SDS011;38298;50.346;3.526;2022-12-29T04:45:06;6.80;;;0.85;;
52368;SDS011;38298;50.346;3.526;2022-12-29T04:47:32;8.48;;;1.60;;
52368;SDS011;38298;50.346;3.526;2022-12-29T04:49:58;9.45;;;0.80;;
52368;SDS011;38298;50.346;3.526;2022-12-29T04:52:24;11.27;;;0.80;;
52368;SDS011;38298;50.346;3.526;2022-12-29T04:54:50;7.35;;;1.10;;
52368;SDS011;38298;50.346;3.526;2022-12-29T04:57:16;7.32;;;1.10;;
52368;SDS011;38298;50.346;3.526;2022-12-29T04:59:42;7.03;;;0.93;;
52368;SDS011;38298;50.346;3.526;2022-12-29T05:02:08;12.18;;;1.48;;
52368;SDS011;38298;50.346;3.526;2022-12-29T05:04:34;5.22;;;0.80;;
52368;SDS011;38298;50.346;3.526;2022-12-29T05:07:00;14.50;;;1.55;;
52368;SDS011;38298;50.346;3.526;2022-12-29T05:09:26;8.13;;;0.80;;
52368;SDS011;38298;50.346;3.526;2022-12-29T05:11:52;9.55;;;0.93;;
52368;SDS011;38298;50.346;3.526;2022-12-29T05:14:18;7.07;;;0.85;;
52368;SDS011;38298;50.346;3.526;2022-12-29T05:16:44;7.30;;;0.90;;
52368;SDS011;38298;50.346;3.526;2022-12-29T05:19:10;4.95;;;1.23;;
52368;SDS011;38298;50.346;3.526;2022-12-29T05:21:36;4.40;;;0.90;;
52368;SDS011;38298;50.346;3.526;2022-12-29T05:24:02;3.53;;;0.70;;
52368;SDS011;38298;50.346;3.526;2022-12-29T05:26:28;7.03;;;0.90;;
52368;SDS011;38298;50.346;3.526;2022-12-29T05:28:54;7.72;;;1.10;;
52368;SDS011;38298;50.346;3.526;2022-12-29T05:31:20;4.10;;;0.90;;
52368;SDS011;38298;50.346;3.526;2022-12-29T05:33:46;3.25;;;0.75;;
52368;SDS011;38298;50.346;3.526;2022-12-29T05:36:12;5.72;;;1.30;;
52368;SDS011;38298;50.346;3.526;2022-12-29T05:38:40;2.97;;;0.88;;
52368;SDS011;38298;50.346;3.526;2022-12-29T05:41:06;4.85;;;1.05;;
52368;SDS011;38298;50.346;3.526;2022-12-29T05:43:32;7.78;;;0.90;;
52368;SDS011;38298;50.346;3.526;2022-12-29T05:45:58;4.32;;;0.70;;
52368;SDS011;38298;50.346;3.526;2022-12-29T05:48:25;4.57;;;0.93;;
52368;SDS011;38298;50.346;3.526;2022-12-29T05:50:51;6.40;;;0.90;;
52368;SDS011;38298;50.346;3.526;2022-12-29T05:53:17;8.93;;;1.15;;
52368;SDS011;38298;50.346;3.526;2022-12-29T05:55:46;6.38;;;1.02;;
52368;SDS011;38298;50.346;3.526;2022-12-29T05:58:13;9.20;;;1.00;;
52368;SDS011;38298;50.346;3.526;2022-12-29T06:00:39;3.97;;;0.95;;
52368;SDS011;38298;50.346;3.526;2022-12-29T06:03:06;10.27;;;1.17;;
52368;SDS011;38298;50.346;3.526;2022-12-29T06:05:31;12.55;;;1.33;;
52368;SDS011;38298;50.346;3.526;2022-12-29T06:07:57;5.28;;;1.10;;
52368;SDS011;38298;50.346;3.526;2022-12-29T06:10:23;6.97;;;1.10;;
52368;SDS011;38298;50.346;3.526;2022-12-29T06:12:50;7.18;;;0.98;;
52368;SDS011;38298;50.346;3.526;2022-12-29T06:15:16;8.75;;;1.10;;
52368;SDS011;38298;50.346;3.526;2022-12-29T06:17:42;7.93;;;1.13;;
52368;SDS011;38298;50.346;3.526;2022-12-29T06:20:08;9.32;;;2.08;;
52368;SDS011;38298;50.346;3.526;2022-12-29T06:22:34;7.05;;;1.10;;
52368;SDS011;38298;50.346;3.526;2022-12-29T06:25:01;7.15;;;1.00;;
52368;SDS011;38298;50.346;3.526;2022-12-29T06:27:27;7.20;;;1.02;;
52368;SDS011;38298;50.346;3.526;2022-12-29T06:29:53;9.32;;;1.27;;
52368;SDS011;38298;50.346;3.526;2022-12-29T06:32:19;12.20;;;1.52;;
52368;SDS011;38298;50.346;3.526;2022-12-29T06:34:45;8.70;;;1.00;;
52368;SDS011;38298;50.346;3.526;2022-12-29T06:37:11;12.77;;;1.50;;
52368;SDS011;38298;50.346;3.526;2022-12-29T06:39:38;10.60;;;1.08;;
52368;SDS011;38298;50.346;3.526;2022-12-29T06:42:04;5.75;;;1.17;;
52368;SDS011;38298;50.346;3.526;2022-12-29T06:44:30;8.05;;;1.23;;
52368;SDS011;38298;50.346;3.526;2022-12-29T06:46:56;7.13;;;1.13;;
52368;SDS011;38298;50.346;3.526;2022-12-29T06:49:22;8.65;;;1.23;;
52368;SDS011;38298;50.346;3.526;2022-12-29T06:51:48;10.57;;;1.13;;
52368;SDS011;38298;50.346;3.526;2022-12-29T06:54:14;9.73;;;1.33;;
52368;SDS011;38298;50.346;3.526;2022-12-29T06:56:40;6.60;;;0.95;;
52368;SDS011;38298;50.346;3.526;2022-12-29T06:59:06;5.68;;;1.65;;
52368;SDS011;38298;50.346;3.526;2022-12-29T07:01:32;18.48;;;1.83;;
52368;SDS011;38298;50.346;3.526;2022-12-29T07:03:59;13.65;;;1.08;;
52368;SDS011;38298;50.346;3.526;2022-12-29T07:06:25;15.68;;;1.30;;
52368;SDS011;38298;50.346;3.526;2022-12-29T07:08:51;11.63;;;1.52;;
52368;SDS011;38298;50.346;3.526;2022-12-29T07:11:19;9.25;;;1.52;;
52368;SDS011;38298;50.346;3.526;2022-12-29T07:13:45;7.60;;;1.60;;
52368;SDS011;38298;50.346;3.526;2022-12-29T07:16:11;7.32;;;1.10;;
52368;SDS011;38298;50.346;3.526;2022-12-29T07:18:37;17.10;;;1.23;;
52368;SDS011;38298;50.346;3.526;2022-12-29T07:21:04;3.67;;;1.00;;
52368;SDS011;38298;50.346;3.526;2022-12-29T07:23:30;12.23;;;1.23;;
52368;SDS011;38298;50.346;3.526;2022-12-29T07:26:03;6.43;;;1.40;;
52368;SDS011;38298;50.346;3.526;2022-12-29T07:28:29;8.10;;;1.20;;
52368;SDS011;38298;50.346;3.526;2022-12-29T07:30:57;10.10;;;1.27;;
52368;SDS011;38298;50.346;3.526;2022-12-29T07:33:23;18.30;;;1.88;;
52368;SDS011;38298;50.346;3.526;2022-12-29T07:35:49;7.10;;;1.15;;
52368;SDS011;38298;50.346;3.526;2022-12-29T07:38:15;9.25;;;1.52;;
52368;SDS011;38298;50.346;3.526;2022-12-29T07:40:42;6.95;;;0.98;;
52368;SDS011;38298;50.346;3.526;2022-12-29T07:43:09;6.18;;;1.10;;
52368;SDS011;38298;50.346;3.526;2022-12-29T07:45:35;6.90;;;1.25;;
52368;SDS011;38298;50.346;3.526;2022-12-29T07:48:01;3.25;;;1.00;;
52368;SDS011;38298;50.346;3.526;2022-12-29T07:50:27;6.88;;;1.25;;
52368;SDS011;38298;50.346;3.526;2022-12-29T07:52:53;6.25;;;1.10;;
52368;SDS011;38298;50.346;3.526;2022-12-29T07:55:19;9.30;;;1.88;;
52368;SDS011;38298;50.346;3.526;2022-12-29T07:57:45;6.85;;;1.45;;
52368;SDS011;38298;50.346;3.526;2022-12-29T08:00:11;10.10;;;1.30;;
52368;SDS011;38298;50.346;3.526;2022-12-29T08:02:37;21.38;;;1.27;;
52368;SDS011;38298;50.346;3.526;2022-12-29T08:05:04;12.13;;;1.48;;
52368;SDS011;38298;50.346;3.526;2022-12-29T08:07:30;12.73;;;1.20;;
52368;SDS011;38298;50.346;3.526;2022-12-29T08:09:56;5.18;;;1.08;;
52368;SDS011;38298;50.346;3.526;2022-12-29T08:12:22;6.05;;;1.00;;
52368;SDS011;38298;50.346;3.526;2022-12-29T08:14:48;4.88;;;1.30;;
52368;SDS011;38298;50.346;3.526;2022-12-29T08:17:14;19.38;;;1.15;;
52368;SDS011;38298;50.346;3.526;2022-12-29T08:19:40;10.80;;;1.20;;
52368;SDS011;38298;50.346;3.526;2022-12-29T08:22:07;14.25;;;1.27;;
52368;SDS011;38298;50.346;3.526;2022-12-29T08:24:33;9.55;;;1.23;;
52368;SDS011;38298;50.346;3.526;2022-12-29T08:26:59;7.35;;;1.08;;
52368;SDS011;38298;50.346;3.526;2022-12-29T08:29:25;12.27;;;1.00;;
52368;SDS011;38298;50.346;3.526;2022-12-29T08:31:51;11.40;;;0.95;;
52368;SDS011;38298;50.346;3.526;2022-12-29T08:34:17;7.05;;;0.75;;
52368;SDS011;38298;50.346;3.526;2022-12-29T08:36:43;8.70;;;1.80;;
52368;SDS011;38298;50.346;3.526;2022-12-29T08:39:09;4.60;;;1.10;;
52368;SDS011;38298;50.346;3.526;2022-12-29T08:41:36;9.73;;;1.45;;
52368;SDS011;38298;50.346;3.526;2022-12-29T08:44:02;9.52;;;1.35;;
52368;SDS011;38298;50.346;3.526;2022-12-29T08:46:28;11.73;;;1.95;;
52368;SDS011;38298;50.346;3.526;2022-12-29T08:48:54;6.90;;;0.98;;
52368;SDS011;38298;50.346;3.526;2022-12-29T08:51:20;12.25;;;1.95;;
52368;SDS011;38298;50.346;3.526;2022-12-29T08:53:46;7.88;;;1.50;;
52368;SDS011;38298;50.346;3.526;2022-12-29T08:56:13;8.45;;;1.63;;
52368;SDS011;38298;50.346;3.526;2022-12-29T08:58:39;6.38;;;1.23;;
52368;SDS011;38298;50.346;3.526;2022-12-29T09:01:05;7.47;;;1.20;;
52368;SDS011;38298;50.346;3.526;2022-12-29T09:03:32;8.27;;;1.45;;
52368;SDS011;38298;50.346;3.526;2022-12-29T09:05:58;9.63;;;1.77;;
52368;SDS011;38298;50.346;3.526;2022-12-29T09:08:24;11.25;;;1.33;;
52368;SDS011;38298;50.346;3.526;2022-12-29T09:10:50;10.75;;;1.73;;
52368;SDS011;38298;50.346;3.526;2022-12-29T09:13:18;12.18;;;1.42;;
52368;SDS011;38298;50.346;3.526;2022-12-29T09:15:44;7.57;;;1.05;;
52368;SDS011;38298;50.346;3.526;2022-12-29T09:18:10;11.75;;;1.52;;
52368;SDS011;38298;50.346;3.526;2022-12-29T09:20:37;11.75;;;1.42;;
52368;SDS011;38298;50.346;3.526;2022-12-29T09:23:03;8.95;;;1.30;;
52368;SDS011;38298;50.346;3.526;2022-12-29T09:25:30;8.82;;;1.23;;
52368;SDS011;38298;50.346;3.526;2022-12-29T09:27:57;9.93;;;1.45;;
52368;SDS011;38298;50.346;3.526;2022-12-29T09:30:23;9.90;;;1.38;;
52368;SDS011;38298;50.346;3.526;2022-12-29T09:32:49;15.10;;;2.08;;
52368;SDS011;38298;50.346;3.526;2022-12-29T09:35:15;7.57;;;1.35;;
52368;SDS011;38298;50.346;3.526;2022-12-29T09:37:42;12.45;;;1.92;;
52368;SDS011;38298;50.346;3.526;2022-12-29T09:40:22;7.00;;;1.30;;
52368;SDS011;38298;50.346;3.526;2022-12-29T09:42:55;8.57;;;1.50;;
52368;SDS011;38298;50.346;3.526;2022-12-29T09:45:47;8.85;;;2.40;;
52368;SDS011;38298;50.346;3.526;2022-12-29T09:48:16;7.25;;;1.25;;
52368;SDS011;38298;50.346;3.526;2022-12-29T09:50:44;10.73;;;1.30;;
52368;SDS011;38298;50.346;3.526;2022-12-29T09:55:58;8.90;;;1.42;;
52368;SDS011;38298;50.346;3.526;2022-12-29T10:01:05;10.47;;;1.67;;
52368;SDS011;38298;50.346;3.526;2022-12-29T10:03:53;8.80;;;1.25;;
52368;SDS011;38298;50.346;3.526;2022-12-29T10:06:30;8.15;;;1.75;;
52368;SDS011;38298;50.346;3.526;2022-12-29T10:09:15;10.68;;;1.98;;
52368;SDS011;38298;50.346;3.526;2022-12-29T10:24:17;7.43;;;1.48;;
52368;SDS011;38298;50.346;3.526;2022-12-29T10:26:44;10.02;;;1.27;;
52368;SDS011;38298;50.346;3.526;2022-12-29T10:31:46;11.10;;;1.73;;
52368;SDS011;38298;50.346;3.526;2022-12-29T10:34:15;12.60;;;1.55;;
52368;SDS011;38298;50.346;3.526;2022-12-29T10:36:46;6.93;;;1.00;;
52368;SDS011;38298;50.346;3.526;2022-12-29T10:44:27;11.93;;;1.35;;
52368;SDS011;38298;50.346;3.526;2022-12-29T10:46:56;8.05;;;1.42;;
52368;SDS011;38298;50.346;3.526;2022-12-29T10:49:22;12.27;;;1.83;;
52368;SDS011;38298;50.346;3.526;2022-12-29T10:51:50;8.90;;;1.73;;
52368;SDS011;38298;50.346;3.526;2022-12-29T10:54:27;12.55;;;1.50;;
52368;SDS011;38298;50.346;3.526;2022-12-29T10:57:02;11.93;;;1.60;;
52368;SDS011;38298;50.346;3.526;2022-12-29T10:59:30;6.40;;;1.35;;
52368;SDS011;38298;50.346;3.526;2022-12-29T11:07:19;6.80;;;1.30;;
52368;SDS011;38298;50.346;3.526;2022-12-29T11:09:46;8.02;;;1.50;;
52368;SDS011;38298;50.346;3.526;2022-12-29T11:12:28;14.30;;;1.50;;
52368;SDS011;38298;50.346;3.526;2022-12-29T11:22:58;13.25;;;1.33;;
52368;SDS011;38298;50.346;3.526;2022-12-29T11:25:25;7.05;;;1.38;;
52368;SDS011;38298;50.346;3.526;2022-12-29T11:27:54;9.05;;;1.83;;
52368;SDS011;38298;50.346;3.526;2022-12-29T11:30:25;11.60;;;1.50;;
52368;SDS011;38298;50.346;3.526;2022-12-29T11:32:52;15.75;;;2.08;;
52368;SDS011;38298;50.346;3.526;2022-12-29T11:35:35;11.13;;;1.75;;
52368;SDS011;38298;50.346;3.526;2022-12-29T11:38:01;9.95;;;1.42;;
52368;SDS011;38298;50.346;3.526;2022-12-29T11:40:28;12.98;;;1.17;;
52368;SDS011;38298;50.346;3.526;2022-12-29T11:42:58;12.88;;;1.80;;
52368;SDS011;38298;50.346;3.526;2022-12-29T11:45:29;10.50;;;1.20;;
52368;SDS011;38298;50.346;3.526;2022-12-29T11:48:11;9.45;;;1.70;;
52368;SDS011;38298;50.346;3.526;2022-12-29T11:50:40;11.10;;;1.35;;
52368;SDS011;38298;50.346;3.526;2022-12-29T11:53:14;13.73;;;1.90;;
52368;SDS011;38298;50.346;3.526;2022-12-29T11:55:50;13.63;;;1.63;;
52368;SDS011;38298;50.346;3.526;2022-12-29T11:58:16;17.50;;;2.20;;
52368;SDS011;38298;50.346;3.526;2022-12-29T12:00:42;13.90;;;2.58;;
52368;SDS011;38298;50.346;3.526;2022-12-29T12:11:23;6.82;;;1.48;;
52368;SDS011;38298;50.346;3.526;2022-12-29T12:13:38;13.90;;;1.63;;
52368;SDS011;38298;50.346;3.526;2022-12-29T12:19:04;7.45;;;1.17;;
52368;SDS011;38298;50.346;3.526;2022-12-29T12:21:37;12.48;;;1.27;;
52368;SDS011;38298;50.346;3.526;2022-12-29T12:26:58;10.95;;;1.80;;
52368;SDS011;38298;50.346;3.526;2022-12-29T12:29:27;8.93;;;2.05;;
52368;SDS011;38298;50.346;3.526;2022-12-29T12:31:57;12.57;;;1.73;;
52368;SDS011;38298;50.346;3.526;2022-12-29T12:49:54;18.40;;;2.00;;
52368;SDS011;38298;50.346;3.526;2022-12-29T12:52:39;13.50;;;1.73;;
52368;SDS011;38298;50.346;3.526;2022-12-29T12:58:58;12.10;;;1.15;;
52368;SDS011;38298;50.346;3.526;2022-12-29T13:03:48;11.65;;;1.25;;
52368;SDS011;38298;50.346;3.526;2022-12-29T13:09:18;13.07;;;1.80;;
52368;SDS011;38298;50.346;3.526;2022-12-29T13:14:23;11.73;;;1.55;;
52368;SDS011;38298;50.346;3.526;2022-12-29T13:22:09;14.02;;;1.60;;
52368;SDS011;38298;50.346;3.526;2022-12-29T13:27:16;13.90;;;1.70;;
52368;SDS011;38298;50.346;3.526;2022-12-29T13:29:47;13.55;;;1.75;;
52368;SDS011;38298;50.346;3.526;2022-12-29T13:34:53;13.15;;;1.70;;
52368;SDS011;38298;50.346;3.526;2022-12-29T13:37:23;13.18;;;1.40;;
52368;SDS011;38298;50.346;3.526;2022-12-29T13:39:52;19.33;;;1.85;;
52368;SDS011;38298;50.346;3.526;2022-12-29T13:42:21;15.20;;;2.33;;
52368;SDS011;38298;50.346;3.526;2022-12-29T13:44:51;19.13;;;3.25;;
52368;SDS011;38298;50.346;3.526;2022-12-29T13:47:27;11.32;;;1.58;;
52368;SDS011;38298;50.346;3.526;2022-12-29T13:49:55;14.90;;;2.10;;
52368;SDS011;38298;50.346;3.526;2022-12-29T13:55:17;12.32;;;2.35;;
52368;SDS011;38298;50.346;3.526;2022-12-29T13:58:04;12.18;;;1.95;;
52368;SDS011;38298;50.346;3.526;2022-12-29T14:00:35;10.25;;;1.65;;
52368;SDS011;38298;50.346;3.526;2022-12-29T14:05:31;12.95;;;1.90;;
52368;SDS011;38298;50.346;3.526;2022-12-29T14:07:58;14.45;;;2.90;;
52368;SDS011;38298;50.346;3.526;2022-12-29T14:10:35;12.10;;;1.80;;
52368;SDS011;38298;50.346;3.526;2022-12-29T14:13:17;15.93;;;2.00;;
52368;SDS011;38298;50.346;3.526;2022-12-29T14:15:45;14.68;;;1.85;;
52368;SDS011;38298;50.346;3.526;2022-12-29T14:18:16;21.05;;;1.90;;
52368;SDS011;38298;50.346;3.526;2022-12-29T14:20:48;20.88;;;2.00;;
52368;SDS011;38298;50.346;3.526;2022-12-29T14:26:33;13.48;;;2.30;;
52368;SDS011;38298;50.346;3.526;2022-12-29T14:28:48;14.70;;;2.50;;
52368;SDS011;38298;50.346;3.526;2022-12-29T14:33:41;12.63;;;2.30;;
52368;SDS011;38298;50.346;3.526;2022-12-29T14:44:32;14.30;;;1.88;;
52368;SDS011;38298;50.346;3.526;2022-12-29T14:47:00;12.80;;;2.40;;
52368;SDS011;38298;50.346;3.526;2022-12-29T14:49:39;16.90;;;1.40;;
52368;SDS011;38298;50.346;3.526;2022-12-29T14:52:07;12.48;;;1.63;;
52368;SDS011;38298;50.346;3.526;2022-12-29T14:57:05;8.93;;;0.90;;
52368;SDS011;38298;50.346;3.526;2022-12-29T14:59:32;8.13;;;1.10;;
52368;SDS011;38298;50.346;3.526;2022-12-29T15:02:00;8.20;;;1.30;;
52368;SDS011;38298;50.346;3.526;2022-12-29T15:04:30;11.00;;;1.63;;
52368;SDS011;38298;50.346;3.526;2022-12-29T15:06:56;5.40;;;1.08;;
52368;SDS011;38298;50.346;3.526;2022-12-29T15:14:48;8.98;;;1.40;;
52368;SDS011;38298;50.346;3.526;2022-12-29T15:17:23;13.00;;;1.63;;
52368;SDS011;38298;50.346;3.526;2022-12-29T15:19:50;6.63;;;1.52;;
52368;SDS011;38298;50.346;3.526;2022-12-29T15:22:16;6.82;;;1.60;;
52368;SDS011;38298;50.346;3.526;2022-12-29T15:24:42;8.88;;;1.20;;
52368;SDS011;38298;50.346;3.526;2022-12-29T15:27:15;8.13;;;1.63;;
52368;SDS011;38298;50.346;3.526;2022-12-29T15:29:43;9.30;;;1.23;;
52368;SDS011;38298;50.346;3.526;2022-12-29T15:32:15;7.85;;;1.73;;
52368;SDS011;38298;50.346;3.526;2022-12-29T15:34:42;9.43;;;1.10;;
52368;SDS011;38298;50.346;3.526;2022-12-29T15:37:08;6.20;;;1.10;;
52368;SDS011;38298;50.346;3.526;2022-12-29T15:39:34;6.47;;;1.10;;
52368;SDS011;38298;50.346;3.526;2022-12-29T15:44:53;8.88;;;0.98;;
52368;SDS011;38298;50.346;3.526;2022-12-29T15:47:21;7.00;;;1.13;;
52368;SDS011;38298;50.346;3.526;2022-12-29T15:49:47;9.23;;;1.73;;
52368;SDS011;38298;50.346;3.526;2022-12-29T15:52:21;10.52;;;1.20;;
52368;SDS011;38298;50.346;3.526;2022-12-29T15:54:51;9.23;;;1.02;;
52368;SDS011;38298;50.346;3.526;2022-12-29T15:57:22;3.92;;;0.80;;
52368;SDS011;38298;50.346;3.526;2022-12-29T15:59:48;6.85;;;1.15;;
52368;SDS011;38298;50.346;3.526;2022-12-29T16:02:15;2.85;;;0.75;;
52368;SDS011;38298;50.346;3.526;2022-12-29T16:04:41;7.45;;;1.40;;
52368;SDS011;38298;50.346;3.526;2022-12-29T16:09:59;5.82;;;1.52;;
52368;SDS011;38298;50.346;3.526;2022-12-29T16:12:32;6.63;;;1.60;;
52368;SDS011;38298;50.346;3.526;2022-12-29T16:15:00;9.38;;;1.50;;
52368;SDS011;38298;50.346;3.526;2022-12-29T16:17:28;6.72;;;1.33;;
52368;SDS011;38298;50.346;3.526;2022-12-29T16:22:48;7.28;;;1.35;;
52368;SDS011;38298;50.346;3.526;2022-12-29T16:25:25;7.32;;;1.55;;
52368;SDS011;38298;50.346;3.526;2022-12-29T16:27:54;6.53;;;1.48;;
52368;SDS011;38298;50.346;3.526;2022-12-29T16:30:24;6.97;;;1.42;;
52368;SDS011;38298;50.346;3.526;2022-12-29T16:32:51;14.18;;;1.92;;
52368;SDS011;38298;50.346;3.526;2022-12-29T16:37:43;4.70;;;1.20;;
52368;SDS011;38298;50.346;3.526;2022-12-29T16:42:48;8.75;;;1.85;;
52368;SDS011;38298;50.346;3.526;2022-12-29T16:47:47;12.07;;;1.95;;
52368;SDS011;38298;50.346;3.526;2022-12-29T16:50:17;17.17;;;1.88;;
52368;SDS011;38298;50.346;3.526;2022-12-29T16:52:46;11.05;;;1.90;;
52368;SDS011;38298;50.346;3.526;2022-12-29T16:55:17;12.68;;;1.90;;
52368;SDS011;38298;50.346;3.526;2022-12-29T16:57:44;7.65;;;1.50;;
52368;SDS011;38298;50.346;3.526;2022-12-29T17:00:21;18.80;;;2.20;;
52368;SDS011;38298;50.346;3.526;2022-12-29T17:02:48;9.98;;;1.65;;
52368;SDS011;38298;50.346;3.526;2022-12-29T17:05:15;15.82;;;2.15;;
52368;SDS011;38298;50.346;3.526;2022-12-29T17:07:41;9.02;;;2.17;;
52368;SDS011;38298;50.346;3.526;2022-12-29T17:10:07;10.40;;;1.73;;
52368;SDS011;38298;50.346;3.526;2022-12-29T17:12:33;18.05;;;2.38;;
52368;SDS011;38298;50.346;3.526;2022-12-29T17:15:00;13.77;;;2.17;;
52368;SDS011;38298;50.346;3.526;2022-12-29T17:19:57;14.23;;;2.13;;
52368;SDS011;38298;50.346;3.526;2022-12-29T17:22:27;10.60;;;1.90;;
52368;SDS011;38298;50.346;3.526;2022-12-29T17:24:54;13.55;;;2.45;;
52368;SDS011;38298;50.346;3.526;2022-12-29T17:27:26;16.15;;;2.45;;
52368;SDS011;38298;50.346;3.526;2022-12-29T17:29:53;13.23;;;2.17;;
52368;SDS011;38298;50.346;3.526;2022-12-29T17:32:21;17.33;;;3.28;;
52368;SDS011;38298;50.346;3.526;2022-12-29T17:34:47;16.05;;;2.20;;
52368;SDS011;38298;50.346;3.526;2022-12-29T17:39:42;17.05;;;2.22;;
52368;SDS011;38298;50.346;3.526;2022-12-29T17:42:08;11.77;;;2.72;;
52368;SDS011;38298;50.346;3.526;2022-12-29T17:44:35;18.45;;;2.45;;
52368;SDS011;38298;50.346;3.526;2022-12-29T17:47:01;11.50;;;1.88;;
52368;SDS011;38298;50.346;3.526;2022-12-29T17:49:27;15.32;;;2.22;;
52368;SDS011;38298;50.346;3.526;2022-12-29T17:51:53;12.45;;;2.20;;